Time;durP1;ratioP1;P1;durP2;ratioP2;P2;SDS_P1;SDS_P2;PMS_P1;PMS_P2;Temp;Humidity;BMP_temperature;BMP_pressure;BME280_temperature;BME280_humidity;BME280_pressure;Samples;Min_cycle;Max_cycle;Signal;HPM_P1;HPM_P2
2023/03/22 00:01:23;;;;;;;;;44.25;35.00;;;;;11.87;75.73;100561.78;146615;578;45024;-77
2023/03/22 00:04:27;;;;;;;;;42.50;34.75;;;;;11.90;75.83;100574.91;146621;572;45021;-75
2023/03/22 00:07:25;;;;;;;;;41.50;33.25;;;;;11.94;77.41;100561.22;146614;610;45916;-76
2023/03/22 00:10:34;;;;;;;;;41.50;33.25;;;;;11.92;76.40;100562.87;146624;564;45021;-75
2023/03/22 00:13:28;;;;;;;;;36.25;30.00;;;;;11.91;76.64;100559.37;146621;563;45016;-75
2023/03/22 00:16:26;;;;;;;;;35.75;29.00;;;;;11.91;76.90;100550.72;146624;582;45021;-76
2023/03/22 00:19:28;;;;;;;;;;;;;;;;;;;;;
2023/03/22 00:22:24;;;;;;;;;31.00;29.00;;;;;11.96;76.56;100551.78;146627;608;45022;-75
2023/03/22 00:25:28;;;;;;;;;28.50;26.50;;;;;12.02;76.40;100552.03;146621;581;45915;-75
2023/03/22 00:28:28;;;;;;;;;29.50;28.50;;;;;12.10;76.42;100548.06;146625;598;45020;-75
2023/03/22 00:31:21;;;;;;;;;32.50;26.50;;;;;12.19;75.93;100550.16;146618;589;45017;-76
2023/03/22 00:34:26;;;;;;;;;28.75;27.75;;;;;12.22;75.80;100547.69;146620;584;45020;-76
2023/03/22 00:37:37;;;;;;;;;28.50;26.00;;;;;12.24;75.44;100535.63;146622;607;45016;-76
2023/03/22 00:40:49;;;;;;;;;32.25;27.25;;;;;12.20;75.61;100533.72;146623;565;45021;-75
2023/03/22 00:43:57;;;;;;;;;34.75;28.00;;;;;12.16;75.60;100540.53;146620;604;45910;-76
2023/03/22 00:46:55;;;;;;;;;32.75;29.25;;;;;12.15;75.71;100543.03;146624;683;45021;-77
2023/03/22 00:49:59;;;;;;;;;33.75;29.00;;;;;11.32;75.91;100394.94;146620;603;45915;-79
2023/03/22 00:53:13;;;;;;;;;;;;;;;;;;;;;
2023/03/22 00:56:12;;;;;;;;;24.50;23.50;;;;;11.94;75.83;100519.66;146618;734;45914;-81
2023/03/22 00:59:14;;;;;;;;;24.75;21.50;;;;;11.88;75.87;100520.28;146624;607;45020;-79
2023/03/22 01:02:28;;;;;;;;;23.50;22.00;;;;;11.82;76.02;100517.38;146622;569;45017;-80
2023/03/22 01:05:20;;;;;;;;;27.00;24.75;;;;;11.75;76.96;100524.03;146623;570;45020;-82
2023/03/22 01:08:18;;;;;;;;;30.75;23.25;;;;;11.64;78.06;100516.59;146620;576;45017;-81
2023/03/22 01:11:12;;;;;;;;;26.50;23.75;;;;;11.48;77.84;100517.63;146624;613;45020;-81
2023/03/22 01:14:12;;;;;;;;;25.75;23.75;;;;;11.49;77.44;100520.28;146623;684;45016;-80
2023/03/22 01:17:13;;;;;;;;;25.00;21.50;;;;;11.46;78.73;100514.94;146626;583;45021;-80
2023/03/22 01:20:09;;;;;;;;;27.25;23.00;;;;;11.44;78.42;100516.62;146621;658;45016;-82
2023/03/22 01:23:13;;;;;;;;;33.75;24.50;;;;;11.41;78.45;100515.59;146623;628;45021;-81
2023/03/22 01:26:34;;;;;;;;;22.50;21.50;;;;;11.34;78.71;100498.88;146616;619;45912;-75
2023/03/22 01:29:53;;;;;;;;;23.00;20.00;;;;;11.37;80.14;100501.59;146621;577;45020;-73
2023/03/22 01:33:06;;;;;;;;;;;;;;;;;;;;;
2023/03/22 01:36:06;;;;;;;;;25.50;22.00;;;;;11.37;80.35;100491.22;146626;569;45020;-74
2023/03/22 01:39:35;;;;;;;;;26.50;22.50;;;;;11.37;81.74;100495.50;146619;610;46013;-73
2023/03/22 01:42:37;;;;;;;;;30.25;25.50;;;;;11.40;83.45;100478.38;146624;594;45020;-73
2023/03/22 01:45:47;;;;;;;;;29.50;26.25;;;;;11.41;80.84;100490.50;146620;571;45017;-75
2023/03/22 01:48:53;;;;;;;;;28.50;26.25;;;;;11.43;80.24;100483.69;146626;605;45020;-75
2023/03/22 01:51:57;;;;;;;;;32.75;29.00;;;;;11.50;81.25;100487.44;146621;602;45016;-74
2023/03/22 01:55:01;;;;;;;;;28.50;23.25;;;;;11.61;79.92;100477.50;146623;583;45021;-74
2023/03/22 01:58:03;;;;;;;;;32.75;30.00;;;;;11.68;80.22;100480.44;146620;585;45028;-74
2023/03/22 02:01:02;;;;;;;;;29.75;26.00;;;;;11.76;80.15;100486.84;146626;689;45020;-74
2023/03/22 02:04:27;;;;;;;;;32.00;27.25;;;;;11.60;79.24;100449.78;146621;618;45016;-75
2023/03/22 02:07:40;;;;;;;;;32.00;29.25;;;;;11.86;77.99;100492.47;146621;616;45021;-75
2023/03/22 02:10:36;;;;;;;;;31.25;26.75;;;;;11.86;79.50;100503.72;146619;591;45018;-73
2023/03/22 02:14:17;;;;;;;;;29.25;25.75;;;;;11.78;77.14;100497.31;146621;585;45020;-73
2023/03/22 02:17:53;;;;;;;;;31.50;27.00;;;;;11.79;78.76;100514.66;146616;583;46012;-71
2023/03/22 02:21:41;;;;;;;;;29.75;25.00;;;;;11.69;78.20;100515.97;146625;563;45020;-73
2023/03/22 02:25:40;;;;;;;;;27.00;24.50;;;;;11.54;79.04;100526.56;146620;569;45017;-78
2023/03/22 02:29:15;;;;;;;;;22.75;21.00;;;;;10.99;78.27;100441.06;146624;589;45020;-83
2023/03/22 02:32:43;;;;;;;;;34.25;27.75;;;;;11.52;78.01;100536.00;146622;597;45017;-80
2023/03/22 02:36:31;;;;;;;;;28.25;25.75;;;;;11.57;79.13;100531.91;146624;616;45020;-75
2023/03/22 02:40:29;;;;;;;;;39.25;29.75;;;;;10.75;79.29;100378.63;146621;645;45017;-76
2023/03/22 02:44:16;;;;;;;;;39.50;26.50;;;;;11.00;79.00;100403.06;146621;566;45020;-75
2023/03/22 02:47:50;;;;;;;;;37.50;30.50;;;;;11.86;78.53;100534.91;146619;600;45017;-76
2023/03/22 02:51:17;;;;;;;;;33.25;28.25;;;;;11.92;78.01;100529.97;146624;582;45022;-76
2023/03/22 02:54:55;;;;;;;;;34.50;28.25;;;;;12.00;77.56;100538.09;146621;607;45017;-76
2023/03/22 02:58:23;;;;;;;;;32.00;26.50;;;;;12.04;77.53;100533.94;146623;569;45022;-73
2023/03/22 03:02:04;;;;;;;;;30.50;26.50;;;;;11.92;77.48;100516.09;146619;590;45017;-74
2023/03/22 03:05:18;;;;;;;;;42.00;32.00;;;;;11.61;77.10;100473.19;146621;594;46010;-75
2023/03/22 03:08:19;;;;;;;;;34.00;27.00;;;;;12.02;76.86;100555.56;146615;569;45914;-73
2023/03/22 03:11:25;;;;;;;;;;;;;;;;;;;;;
2023/03/22 03:14:47;;;;;;;;;26.75;23.00;;;;;12.02;76.97;100563.34;146619;569;45017;-72
2023/03/22 03:18:18;;;;;;;;;31.75;28.75;;;;;12.01;76.43;100566.75;146622;656;45020;-73
2023/03/22 03:22:10;;;;;;;;;38.50;32.00;;;;;11.97;75.80;100551.84;146621;585;45016;-75
2023/03/22 03:26:00;;;;;;;;;34.00;29.75;;;;;12.05;76.43;100572.97;146621;620;46020;-75
2023/03/22 03:29:38;;;;;;;;;39.25;29.75;;;;;12.11;76.26;100583.63;146616;596;45017;-75
2023/03/22 03:32:40;;;;;;;;;34.25;29.50;;;;;12.15;76.89;100584.62;146623;623;45022;-76
2023/03/22 03:35:44;;;;;;;;;42.50;32.50;;;;;12.16;76.79;100589.03;146613;651;46016;-76
2023/03/22 03:38:42;;;;;;;;;32.50;29.00;;;;;12.12;76.67;100589.69;146622;716;45021;-78
2023/03/22 03:41:36;;;;;;;;;46.25;36.25;;;;;12.07;77.18;100586.91;146620;635;45026;-76
2023/03/22 03:44:35;;;;;;;;;45.25;35.25;;;;;12.01;77.00;100591.84;146621;596;45021;-76
2023/03/22 03:47:31;;;;;;;;;32.75;31.00;;;;;11.95;77.52;100591.59;146616;598;45016;-78
2023/03/22 03:50:38;;;;;;;;;38.25;30.00;;;;;11.92;77.10;100594.03;146624;619;45020;-78
2023/03/22 03:53:38;;;;;;;;;36.50;30.00;;;;;11.89;78.74;100589.59;146620;577;45915;-77
2023/03/22 03:56:38;;;;;;;;;36.50;31.00;;;;;11.90;78.12;100591.41;146621;564;45020;-77
2023/03/22 03:59:44;;;;;;;;;;;;;;;;;;;;;
2023/03/22 04:02:53;;;;;;;;;30.75;29.00;;;;;11.90;78.39;100593.06;146621;625;45022;-75
2023/03/22 04:05:50;;;;;;;;;36.75;28.75;;;;;11.92;79.11;100597.53;146619;564;45016;-72
2023/03/22 04:08:44;;;;;;;;;33.50;26.75;;;;;11.96;78.96;100604.66;146623;590;45020;-72
2023/03/22 04:11:54;;;;;;;;;30.75;27.75;;;;;11.98;78.06;100607.31;146621;563;45016;-72
2023/03/22 04:14:54;;;;;;;;;32.75;29.00;;;;;11.98;78.60;100608.19;146623;581;45021;-72
2023/03/22 04:17:56;;;;;;;;;40.75;32.75;;;;;11.90;78.87;100607.00;146619;587;45016;-73
2023/03/22 04:21:02;;;;;;;;;;;;;;;;;;;;;
2023/03/22 04:24:02;;;;;;;;;32.25;28.25;;;;;11.80;79.06;100609.94;146618;613;46914;-76
2023/03/22 04:26:56;;;;;;;;;31.00;28.25;;;;;11.78;79.14;100617.69;146622;605;45020;-74
2023/03/22 04:29:56;;;;;;;;;27.25;23.00;;;;;11.75;78.65;100617.53;146621;590;45017;-75
2023/03/22 04:33:00;;;;;;;;;35.00;29.00;;;;;11.76;79.11;100621.91;146624;628;45020;-74
2023/03/22 04:36:03;;;;;;;;;29.25;27.25;;;;;11.75;79.05;100622.75;146621;569;45016;-86
2023/03/22 04:39:18;;;;;;;;;32.25;27.75;;;;;11.67;78.28;100626.69;146622;564;45020;-83
2023/03/22 04:42:36;;;;;;;;;29.25;23.75;;;;;10.68;78.34;100456.03;146620;635;45916;-83
2023/03/22 04:45:31;;;;;;;;;32.25;27.25;;;;;10.71;78.97;100462.25;146623;598;45021;-84
2023/03/22 04:48:40;;;;;;;;;31.50;27.50;;;;;11.69;78.46;100626.78;146621;589;45915;-76
2023/03/22 04:51:38;;;;;;;;;30.50;26.50;;;;;11.67;79.98;100634.47;146621;564;45021;-78
2023/03/22 04:55:05;;;;;;;;;33.25;27.50;;;;;11.62;79.11;100637.69;146621;612;45016;-76
2023/03/22 04:58:06;;;;;;;;;29.00;25.75;;;;;11.64;78.68;100634.34;146623;569;45020;-75
2023/03/22 05:01:14;;;;;;;;;;;;;;;;;;;;;
2023/03/22 05:04:12;;;;;;;;;30.00;28.50;;;;;11.69;79.26;100645.84;146623;615;45025;-75
2023/03/22 05:07:05;;;;;;;;;31.25;25.75;;;;;11.70;79.70;100644.13;146616;596;45017;-76
2023/03/22 05:10:05;;;;;;;;;28.50;23.75;;;;;11.75;79.26;100643.53;146620;585;45020;-74
2023/03/22 05:13:10;;;;;;;;;31.50;26.50;;;;;11.84;79.66;100647.34;146616;564;45911;-75
2023/03/22 05:16:04;;;;;;;;;31.25;27.50;;;;;11.88;79.79;100650.19;146620;704;45916;-76
2023/03/22 05:19:12;;;;;;;;;30.25;27.50;;;;;11.92;79.12;100648.59;146620;641;45016;-75
2023/03/22 05:22:10;;;;;;;;;33.00;24.25;;;;;11.92;78.43;100646.91;146624;629;45021;-76
2023/03/22 05:25:15;;;;;;;;;32.75;27.25;;;;;11.89;78.54;100641.56;146615;611;45016;-76
2023/03/22 05:28:21;;;;;;;;;31.50;28.50;;;;;11.87;79.15;100647.50;146621;656;45021;-73
2023/03/22 05:31:33;;;;;;;;;32.75;28.50;;;;;11.92;79.29;100654.69;146620;581;46032;-74
2023/03/22 05:34:41;;;;;;;;;30.00;28.75;;;;;12.05;79.99;100657.84;146612;685;45915;-79
2023/03/22 05:37:37;;;;;;;;;26.75;23.00;;;;;12.11;79.37;100661.59;146620;575;45017;-78
2023/03/22 05:40:39;;;;;;;;;32.25;26.75;;;;;12.10;79.27;100666.72;146621;598;45020;-81
2023/03/22 05:43:34;;;;;;;;;28.50;24.00;;;;;12.06;79.52;100660.53;146617;587;45017;-73
2023/03/22 05:46:40;;;;;;;;;30.25;27.50;;;;;12.02;79.31;100659.50;146624;577;45020;-73
2023/03/22 05:49:38;;;;;;;;;31.50;26.75;;;;;12.02;78.61;100671.56;146616;584;46016;-73
2023/03/22 05:52:41;;;;;;;;;34.25;29.00;;;;;12.05;79.24;100674.31;146624;579;45021;-72
2023/03/22 05:55:45;;;;;;;;;42.25;33.00;;;;;12.10;79.60;100672.81;146613;607;47012;-71
2023/03/22 05:58:51;;;;;;;;;45.50;35.25;;;;;12.16;79.36;100683.50;146623;595;45024;-72
2023/03/22 06:01:59;;;;;;;;;44.50;34.75;;;;;10.50;78.67;100381.81;146616;610;45016;-73
2023/03/22 06:04:57;;;;;;;;;45.75;36.00;;;;;12.31;78.90;100683.28;146618;631;45020;-72
2023/03/22 06:07:54;;;;;;;;;44.00;36.75;;;;;12.37;78.48;100682.66;146616;577;46012;-72
2023/03/22 06:10:57;;;;;;;;;44.00;34.75;;;;;12.42;78.20;100687.22;146622;608;45020;-72
2023/03/22 06:13:51;;;;;;;;;43.50;34.00;;;;;12.51;78.96;100683.25;146617;594;45017;-77
2023/03/22 06:16:51;;;;;;;;;48.50;38.75;;;;;12.57;78.91;100681.78;146618;569;45020;-77
2023/03/22 06:19:59;;;;;;;;;44.50;37.25;;;;;12.70;79.09;100688.37;146617;570;45016;-75
2023/03/22 06:23:13;;;;;;;;;50.75;40.75;;;;;12.90;79.09;100687.50;146621;570;45026;-75
2023/03/22 06:26:22;;;;;;;;;49.75;39.25;;;;;13.15;79.86;100697.22;146616;642;45016;-75
2023/03/22 06:29:30;;;;;;;;;49.00;37.75;;;;;13.40;79.71;100700.81;146619;563;45021;-80
2023/03/22 06:32:25;;;;;;;;;47.25;36.50;;;;;13.62;78.38;100702.53;146618;650;45916;-77
2023/03/22 06:35:31;;;;;;;;;44.00;34.50;;;;;13.81;76.73;100712.84;146619;574;45021;-77
2023/03/22 06:38:26;;;;;;;;;42.75;34.25;;;;;13.98;75.27;100715.19;146615;608;45016;-76
2023/03/22 06:41:36;;;;;;;;;44.25;35.25;;;;;14.09;73.52;100716.47;146621;582;45020;-76
2023/03/22 06:44:36;;;;;;;;;38.50;32.50;;;;;14.18;73.16;100719.41;146617;610;45017;-78
2023/03/22 06:47:45;;;;;;;;;39.75;34.25;;;;;14.28;72.42;100718.03;146621;626;45020;-78
2023/03/22 06:51:06;;;;;;;;;38.75;32.00;;;;;14.34;71.78;100718.25;146616;578;45017;-75
2023/03/22 06:54:25;;;;;;;;;43.75;34.75;;;;;14.45;72.93;100731.66;146623;577;45020;-77
2023/03/22 06:57:27;;;;;;;;;36.50;31.25;;;;;14.60;72.69;100721.81;146615;610;46012;-76
2023/03/22 07:00:40;;;;;;;;;45.50;35.50;;;;;13.81;70.91;100553.84;146619;699;47010;-77
2023/03/22 07:03:33;;;;;;;;;43.75;35.50;;;;;14.87;71.80;100727.09;146616;725;45018;-77
2023/03/22 07:06:38;;;;;;;;;48.75;35.50;;;;;14.00;71.02;100565.81;146618;619;45021;-77
2023/03/22 07:09:48;;;;;;;;;54.25;43.75;;;;;15.06;71.63;100732.94;146616;616;45911;-77
2023/03/22 07:12:46;;;;;;;;;48.75;39.75;;;;;15.24;70.81;100737.03;146622;598;45021;-74
2023/03/22 07:16:00;;;;;;;;;;;;;;;;;;;;;
2023/03/22 07:19:02;;;;;;;;;42.50;35.50;;;;;15.48;69.83;100734.31;146623;592;45020;-81
2023/03/22 07:22:20;;;;;;;;;42.25;30.25;;;;;15.58;69.80;100727.66;146617;586;45016;-82
2023/03/22 07:25:17;;;;;;;;;46.00;36.25;;;;;15.87;70.51;100725.94;146622;635;46010;-83
2023/03/22 07:28:46;;;;;;;;;;;;;;;;;;;;;
2023/03/22 07:31:52;;;;;;;;;50.75;39.00;;;;;16.62;69.10;100720.19;146619;577;45914;-83
2023/03/22 07:34:45;;;;;;;;;41.75;33.75;;;;;17.02;67.18;100723.00;146615;615;45017;-87
2023/03/22 07:37:52;;;;;;;;;;;;;;;;;;;;;
2023/03/22 07:40:55;;;;;;;;;34.00;28.50;;;;;17.53;64.00;100715.47;146620;581;45914;-82
2023/03/22 07:43:58;;;;;;;;;27.50;26.50;;;;;17.72;61.33;100726.38;146619;584;45021;-82
2023/03/22 07:46:57;;;;;;;;;29.00;23.25;;;;;17.79;63.87;100723.09;146618;588;45016;-82
2023/03/22 07:50:01;;;;;;;;;31.00;25.00;;;;;18.02;62.30;100735.81;146624;586;45021;-82
2023/03/22 07:53:03;;;;;;;;;34.00;27.75;;;;;18.28;62.07;100737.22;146620;565;45016;-81
2023/03/22 07:55:55;;;;;;;;;24.25;20.50;;;;;18.29;60.29;100725.03;146624;584;45020;-81
2023/03/22 07:58:52;;;;;;;;;30.75;28.50;;;;;18.33;59.49;100730.34;146622;564;45016;-83
2023/03/22 08:01:48;;;;;;;;;26.00;23.25;;;;;18.17;59.48;100730.91;146625;566;45020;-82
2023/03/22 08:05:06;;;;;;;;;25.50;24.00;;;;;17.31;60.31;100606.66;146621;605;45017;-82
2023/03/22 08:08:18;;;;;;;;;24.25;19.75;;;;;18.01;60.12;100724.44;146620;566;45020;-79
2023/03/22 08:11:27;;;;;;;;;27.75;25.00;;;;;17.96;60.93;100734.84;146621;638;45914;-83
2023/03/22 08:14:52;;;;;;;;;27.50;22.50;;;;;16.14;60.97;100450.34;146623;585;45020;-82
2023/03/22 08:17:51;;;;;;;;;23.25;23.25;;;;;17.59;60.46;100730.47;146619;637;45021;-84
2023/03/22 08:20:48;;;;;;;;;22.00;20.50;;;;;17.28;61.09;100731.50;146621;565;45021;-83
2023/03/22 08:23:51;;;;;;;;;20.25;19.75;;;;;17.03;61.11;100736.13;146620;665;45913;-82
2023/03/22 08:26:57;;;;;;;;;25.00;20.75;;;;;16.81;63.48;100741.66;146623;579;45021;-84
2023/03/22 08:29:57;;;;;;;;;21.75;19.50;;;;;16.64;63.64;100738.59;146619;565;45016;-82
2023/03/22 08:33:09;;;;;;;;;;;;;;;;;;;;;
2023/03/22 08:36:14;;;;;;;;;22.75;19.50;;;;;16.07;64.60;100730.88;146622;661;45018;-82
2023/03/22 08:39:39;;;;;;;;;21.00;18.75;;;;;15.97;66.04;100736.69;146621;618;45030;-82
2023/03/22 08:42:42;;;;;;;;;23.50;20.25;;;;;16.12;66.17;100740.62;146620;657;45017;-81
2023/03/22 08:45:43;;;;;;;;;21.00;19.00;;;;;16.25;65.50;100735.75;146624;618;45020;-83
2023/03/22 08:48:40;;;;;;;;;26.75;20.25;;;;;15.52;65.06;100596.81;146621;633;45017;-84
2023/03/22 08:51:38;;;;;;;;;21.00;18.75;;;;;16.55;64.23;100738.34;146624;569;45020;-85
2023/03/22 08:54:36;;;;;;;;;21.50;19.50;;;;;15.98;64.74;100602.44;146619;574;45017;-84
2023/03/22 08:57:31;;;;;;;;;31.50;24.50;;;;;17.03;64.10;100745.72;146623;590;45021;-81
2023/03/22 09:00:24;;;;;;;;;27.00;22.50;;;;;17.33;62.78;100752.59;146616;570;45016;-81
2023/03/22 09:03:47;;;;;;;;;27.75;25.75;;;;;15.95;62.55;100472.53;146623;620;45021;-80
2023/03/22 09:06:45;;;;;;;;;29.25;24.75;;;;;17.73;62.34;100750.03;146616;604;46911;-80
2023/03/22 09:09:57;;;;;;;;;28.50;25.00;;;;;17.85;60.27;100745.94;146623;606;45020;-87
2023/03/22 09:13:05;;;;;;;;;28.25;23.50;;;;;17.68;62.37;100740.28;146619;695;45035;-83
2023/03/22 09:16:07;;;;;;;;;22.75;18.75;;;;;17.39;62.93;100752.75;146624;594;45020;-81
2023/03/22 09:19:13;;;;;;;;;28.75;25.25;;;;;17.12;63.94;100748.56;146620;621;45017;-83
2023/03/22 09:22:15;;;;;;;;;26.75;23.00;;;;;16.08;65.43;100609.72;146622;563;45020;-83
2023/03/22 09:25:19;;;;;;;;;23.50;21.75;;;;;16.86;64.24;100750.53;146619;638;45016;-84
2023/03/22 09:28:23;;;;;;;;;22.50;20.75;;;;;16.79;65.59;100756.44;146622;576;45020;-81
2023/03/22 09:31:19;;;;;;;;;21.00;20.50;;;;;16.71;65.43;100763.19;146616;585;45016;-82
2023/03/22 09:34:22;;;;;;;;;23.50;20.00;;;;;15.81;66.48;100591.53;146614;577;46011;-80
2023/03/22 09:37:19;;;;;;;;;24.00;22.00;;;;;16.82;65.18;100751.28;146618;584;45016;-80
2023/03/22 09:40:14;;;;;;;;;21.25;20.00;;;;;16.84;63.77;100763.59;146621;588;45021;-83
2023/03/22 09:43:20;;;;;;;;;19.25;18.00;;;;;16.94;64.41;100754.22;146620;588;45016;-83
2023/03/22 09:46:49;;;;;;;;;23.25;21.50;;;;;17.19;65.17;100765.34;146624;597;45020;-81
2023/03/22 09:50:10;;;;;;;;;24.50;19.75;;;;;15.85;62.13;100480.97;146619;569;45016;-85
2023/03/22 09:53:30;;;;;;;;;;;;;;;;;;;;;
2023/03/22 09:56:52;;;;;;;;;21.75;20.50;;;;;17.21;60.56;100619.53;146620;621;45019;-86
2023/03/22 10:00:43;;;;;;;;;21.00;20.00;;;;;18.25;60.57;100771.28;146625;579;45020;-82
2023/03/22 10:04:16;;;;;;;;;23.75;18.75;;;;;17.55;60.64;100613.28;146621;606;45019;-82
2023/03/22 10:07:58;;;;;;;;;22.00;19.50;;;;;18.55;59.13;100765.78;146621;685;45020;-83
2023/03/22 10:11:10;;;;;;;;;18.00;17.25;;;;;18.62;60.59;100753.66;146622;564;45019;-82
2023/03/22 10:14:41;;;;;;;;;20.50;19.00;;;;;17.67;61.08;100603.06;146622;620;45020;-81
2023/03/22 10:17:46;;;;;;;;;23.75;20.50;;;;;18.57;59.82;100755.31;146618;564;45914;-83
2023/03/22 10:21:06;;;;;;;;;25.25;19.75;;;;;17.75;58.88;100643.41;146623;566;45020;-89
2023/03/22 10:24:20;;;;;;;;;29.00;26.00;;;;;18.37;60.81;100763.66;146620;763;45018;-81
2023/03/22 10:27:39;;;;;;;;;20.25;19.00;;;;;16.36;59.08;100457.84;146624;584;45020;-86
2023/03/22 10:30:50;;;;;;;;;27.75;25.50;;;;;17.99;60.79;100752.37;146622;721;45018;-84
2023/03/22 10:34:13;;;;;;;;;26.00;22.25;;;;;18.06;59.92;100746.41;146620;590;45020;-83
2023/03/22 10:37:16;;;;;;;;;20.25;19.75;;;;;18.27;60.04;100742.47;146617;620;45018;-82
2023/03/22 10:40:42;;;;;;;;;;;;;;;;;;;;;
2023/03/22 10:43:48;;;;;;;;;19.00;16.00;;;;;18.79;56.23;100740.88;146620;582;45018;-83
2023/03/22 10:46:55;;;;;;;;;15.50;13.25;;;;;19.03;57.06;100735.16;146620;625;45912;-81
2023/03/22 10:50:18;;;;;;;;;18.50;17.25;;;;;18.54;57.95;100584.59;146619;575;45016;-82
2023/03/22 10:53:49;;;;;;;;;16.75;14.00;;;;;19.75;54.93;100744.19;146624;597;45020;-81
2023/03/22 10:57:03;;;;;;;;;16.50;15.50;;;;;19.23;53.52;100607.56;146619;598;45914;-80
2023/03/22 11:00:27;;;;;;;;;17.25;16.75;;;;;20.30;55.09;100745.78;146622;605;45020;-81
2023/03/22 11:04:01;;;;;;;;;;;;;;;;;;;;;
2023/03/22 11:07:10;;;;;;;;;17.50;15.00;;;;;20.00;50.19;100740.12;146623;593;45020;-83
2023/03/22 11:10:26;;;;;;;;;13.50;13.00;;;;;19.65;55.03;100739.66;146620;618;45017;-81
2023/03/22 11:13:44;;;;;;;;;15.75;15.00;;;;;17.91;54.60;100473.25;146624;569;45020;-80
2023/03/22 11:16:58;;;;;;;;;15.75;15.25;;;;;19.26;52.29;100725.91;146707;565;45012;-78
2023/03/22 11:20:00;;;;;;;;;15.25;13.75;;;;;19.33;54.17;100735.66;146621;655;45939;-80
2023/03/22 11:23:16;;;;;;;;;22.00;18.25;;;;;19.20;53.44;100727.56;146623;622;45020;-80
2023/03/22 11:26:32;;;;;;;;;14.25;14.00;;;;;18.91;53.74;100734.09;146617;683;46013;-77
2023/03/22 11:29:59;;;;;;;;;19.50;17.25;;;;;18.56;55.86;100738.66;146620;665;45024;-82
2023/03/22 11:33:17;;;;;;;;;20.50;19.25;;;;;18.20;56.42;100729.22;146620;565;45914;-80
2023/03/22 11:36:35;;;;;;;;;20.50;17.75;;;;;17.02;57.10;100587.69;146624;672;45020;-79
2023/03/22 11:39:37;;;;;;;;;16.25;14.75;;;;;17.90;57.63;100737.31;146619;668;45017;-81
2023/03/22 11:42:49;;;;;;;;;13.75;12.25;;;;;18.17;56.44;100738.78;146623;700;45021;-79
2023/03/22 11:45:48;;;;;;;;;17.00;14.75;;;;;18.43;54.88;100737.53;146620;596;45912;-78
2023/03/22 11:48:51;;;;;;;;;18.00;16.00;;;;;18.64;54.34;100738.81;146622;593;45021;-81
2023/03/22 11:51:58;;;;;;;;;;;;;;;;;;;;;
2023/03/22 11:55:02;;;;;;;;;16.00;15.25;;;;;19.20;52.11;100731.06;146624;607;45020;-82
2023/03/22 11:58:18;;;;;;;;;14.25;13.00;;;;;19.45;54.18;100729.69;146620;674;45020;-78
2023/03/22 12:01:39;;;;;;;;;15.75;14.00;;;;;19.53;50.41;100728.09;146622;588;45020;-82
2023/03/22 12:04:21;;;;;;;;;17.50;14.50;;;;;19.55;49.87;100726.34;146712;574;45023;-77
2023/03/22 12:07:30;;;;;;;;;12.75;12.25;;;;;19.59;50.32;100722.91;146618;652;46012;-79
2023/03/22 12:10:34;;;;;;;;;18.00;15.00;;;;;19.60;48.79;100724.66;146620;578;45020;-85
2023/03/22 12:14:05;;;;;;;;;19.25;16.00;;;;;19.41;50.46;100722.63;146615;611;46012;-80
2023/03/22 12:17:15;;;;;;;;;18.50;16.50;;;;;19.35;53.11;100715.53;146619;574;45022;-79
2023/03/22 12:20:25;;;;;;;;;16.00;14.00;;;;;19.43;49.88;100718.25;146616;570;46012;-81
2023/03/22 12:23:43;;;;;;;;;14.75;13.75;;;;;19.44;50.35;100708.63;146619;599;45020;-79
2023/03/22 12:27:11;;;;;;;;;14.25;11.00;;;;;19.48;48.68;100715.72;146616;645;45916;-80
2023/03/22 12:31:25;;;;;;;;;9.75;8.75;;;;;18.87;48.43;100597.38;146620;622;46014;-79
2023/03/22 13:07:34;;;;;;;;;3.25;2.75;;;;;18.11;51.58;100368.66;146618;581;45914;-78
2023/03/22 13:11:48;;;;;;;;;;;;;;;;;;;;;
2023/03/22 13:15:23;;;;;;;;;7.33;7.33;;;;;19.73;45.31;100678.41;146618;569;45914;-81
2023/03/22 13:19:22;;;;;;;;;4.00;4.00;;;;;18.41;47.38;100509.97;146626;605;45020;-79
2023/03/22 13:23:23;;;;;;;;;9.33;9.33;;;;;17.94;49.72;100484.72;146619;588;45914;-78
2023/03/22 13:28:09;;;;;;;;;;;;;;;;;;;;;
2023/03/22 13:36:20;;;;;;;;;;;;;;;;;;;;;
2023/03/22 13:40:00;;;;;;;;;;;;;;;;;;;;;
2023/03/22 13:44:12;;;;;;;;;9.67;8.00;;;;;17.75;52.84;100472.97;146625;592;46010;-77
2023/03/22 13:48:06;;;;;;;;;7.67;7.33;;;;;17.96;51.16;100500.47;146621;566;45913;-78
2023/03/22 13:51:44;;;;;;;;;5.67;5.67;;;;;18.76;48.03;100667.28;146621;586;46010;-81
2023/03/22 13:55:54;;;;;;;;;;;;;;;;;;;;;
2023/03/22 14:00:02;;;;;;;;;;;;;;;;;;;;;
2023/03/22 14:54:58;;;;;;;;;;;;;;;;;;;;;
2023/03/22 14:58:42;;;;;;;;;5.67;5.67;;;;;16.97;51.73;100554.38;146626;633;45022;-82
2023/03/22 15:02:24;;;;;;;;;;;;;;;;;;;;;
2023/03/22 15:05:51;;;;;;;;;;;;;;;;;;;;;
2023/03/22 15:09:31;;;;;;;;;;;;;;;;;;;;;
2023/03/22 15:13:52;;;;;;;;;;;;;;;;;;;;;
2023/03/22 15:17:34;;;;;;;;;;;;;;;;;;;;;
2023/03/22 15:20:51;;;;;;;;;;;;;;;;;;;;;
2023/03/22 15:24:37;;;;;;;;;7.33;7.00;;;;;16.38;51.77;100502.34;146617;574;45915;-83
2023/03/22 15:27:49;;;;;;;;;6.00;6.00;;;;;17.60;50.63;100720.88;146621;575;46020;-83
2023/03/22 15:31:08;;;;;;;;;7.75;7.00;;;;;17.42;51.40;100708.25;146614;676;47919;-80
2023/03/22 15:34:28;;;;;;;;;5.00;5.00;;;;;17.45;50.76;100719.69;146621;599;45021;-83
2023/03/22 15:38:01;;;;;;;;;9.75;8.25;;;;;17.46;51.92;100728.44;146614;719;46012;-83
2023/03/22 15:40:58;;;;;;;;;7.25;7.00;;;;;17.43;50.80;100728.37;146620;652;45021;-83
2023/03/22 15:44:39;;;;;;;;;;;;;;;;;;;;;
2023/03/22 15:48:07;;;;;;;;;5.50;5.00;;;;;17.16;51.00;100736.44;146619;565;45021;-81
2023/03/22 15:51:23;;;;;;;;;8.00;6.00;;;;;17.09;51.64;100735.41;146617;617;45018;-81
2023/03/22 15:54:27;;;;;;;;;10.67;8.33;;;;;16.96;55.27;100736.84;146619;655;46010;-85
2023/03/22 15:58:01;;;;;;;;;8.33;7.00;;;;;15.80;55.69;100567.13;146616;679;45914;-81
2023/03/22 16:01:06;;;;;;;;;;;;;;;;;;;;;
2023/03/22 16:04:06;;;;;;;;;8.00;8.00;;;;;16.53;57.84;100761.84;146608;579;46012;-80
2023/03/22 16:07:04;;;;;;;;;11.25;10.00;;;;;16.38;59.74;100761.41;146626;646;45020;-82
2023/03/22 16:10:20;;;;;;;;;9.00;8.00;;;;;16.32;60.58;100766.47;146619;555;45915;-81
2023/03/22 16:13:36;;;;;;;;;9.50;8.50;;;;;16.30;60.66;100761.22;146626;701;45022;-82
2023/03/22 16:16:33;;;;;;;;;10.75;9.00;;;;;16.28;61.61;100772.47;146623;615;45915;-83
2023/03/22 16:19:32;;;;;;;;;12.00;9.50;;;;;16.23;63.44;100769.72;146621;569;45914;-82
2023/03/22 16:22:29;;;;;;;;;11.75;10.25;;;;;16.25;62.48;100777.59;146623;676;45915;-82
2023/03/22 16:25:41;;;;;;;;;9.50;7.50;;;;;16.30;63.53;100779.53;146622;704;45021;-81
2023/03/22 16:28:38;;;;;;;;;34.00;29.75;;;;;16.34;63.09;100783.09;146622;584;45914;-83
2023/03/22 16:31:42;;;;;;;;;14.75;14.00;;;;;16.35;62.12;100785.78;146618;569;45020;-83
2023/03/22 16:34:55;;;;;;;;;23.50;21.50;;;;;16.38;62.43;100793.69;146616;672;45914;-82
2023/03/22 16:38:21;;;;;;;;;12.25;10.00;;;;;16.41;61.96;100792.91;146622;622;45020;-82
2023/03/22 16:41:50;;;;;;;;;13.50;11.75;;;;;16.39;61.88;100794.59;146618;595;45021;-84
2023/03/22 16:44:48;;;;;;;;;17.00;17.00;;;;;16.36;63.11;100808.47;146623;569;45020;-82
2023/03/22 16:47:58;;;;;;;;;31.75;28.00;;;;;16.38;62.99;100808.50;146619;669;45917;-82
2023/03/22 16:51:01;;;;;;;;;20.00;18.25;;;;;16.33;61.86;100803.16;146619;569;45020;-84
2023/03/22 16:54:07;;;;;;;;;14.00;14.00;;;;;16.33;62.87;100808.41;146618;707;45912;-81
2023/03/22 16:57:26;;;;;;;;;;;;;;;;;;;;;
2023/03/22 17:00:35;;;;;;;;;20.25;17.75;;;;;16.15;63.19;100805.22;146619;645;45912;-85